createdAt,value
2023-02-11T00:01:21.288Z,30.93
2023-02-11T00:03:49.536Z,31.13
2023-02-11T00:06:17.828Z,29.10
2023-02-11T00:08:46.020Z,26.23
2023-02-11T00:11:16.312Z,28.10
2023-02-11T00:13:47.281Z,31.33
2023-02-11T00:16:18.133Z,26.10
2023-02-11T00:18:47.068Z,30.23
2023-02-11T00:21:16.864Z,30.00
2023-02-11T00:23:46.222Z,29.07
2023-02-11T00:26:15.227Z,27.33
2023-02-11T00:28:43.777Z,30.17
2023-02-11T00:31:15.122Z,28.77
2023-02-11T00:33:43.394Z,30.63
2023-02-11T00:36:15.509Z,30.70
2023-02-11T00:38:44.354Z,26.97
2023-02-11T00:41:13.105Z,31.83
2023-02-11T00:43:41.987Z,28.97
2023-02-11T00:46:10.720Z,28.37
2023-02-11T00:48:40.542Z,30.17
2023-02-11T00:51:08.963Z,28.93
2023-02-11T00:53:37.584Z,27.13
2023-02-11T00:56:06.637Z,25.33
2023-02-11T00:58:34.906Z,28.67
2023-02-11T01:01:03.072Z,28.50
2023-02-11T01:03:31.675Z,29.27
2023-02-11T01:06:01.558Z,25.80
2023-02-11T01:08:29.738Z,29.93
2023-02-11T01:10:58.723Z,29.90
2023-02-11T01:13:28.174Z,32.97
2023-02-11T01:15:56.386Z,29.93
2023-02-11T01:18:24.433Z,29.90
2023-02-11T01:20:54.618Z,30.80
2023-02-11T01:23:26.874Z,29.57
2023-02-11T01:25:55.506Z,31.40
2023-02-11T01:28:26.172Z,29.17
2023-02-11T01:30:55.137Z,28.87
2023-02-11T01:33:24.417Z,28.67
2023-02-11T01:35:53.288Z,29.43
2023-02-11T01:38:24.949Z,28.33
2023-02-11T01:40:54.830Z,27.63
2023-02-11T01:43:24.125Z,32.07
2023-02-11T01:46:05.501Z,29.17
2023-02-11T01:48:37.639Z,28.67
2023-02-11T01:51:10.595Z,28.10
2023-02-11T01:53:57.507Z,28.40
2023-02-11T01:56:45.429Z,28.57
2023-02-11T01:59:19.356Z,25.67
2023-02-11T02:01:52.394Z,26.90
2023-02-11T02:04:21.462Z,26.03
2023-02-11T02:06:54.671Z,23.13
2023-02-11T02:09:29.205Z,23.63
2023-02-11T02:11:57.685Z,25.23
2023-02-11T02:14:26.606Z,23.20
2023-02-11T02:16:54.542Z,29.40
2023-02-11T02:19:50.288Z,28.37
2023-02-11T02:22:46.677Z,22.80
2023-02-11T02:25:36.642Z,29.50
2023-02-11T02:28:21.686Z,27.63
2023-02-11T02:31:15.282Z,26.70
2023-02-11T02:33:51.299Z,28.10
2023-02-11T02:36:24.758Z,24.53
2023-02-11T02:38:58.494Z,26.40
2023-02-11T02:41:30.718Z,29.43
2023-02-11T02:43:58.964Z,31.33
2023-02-11T02:46:30.624Z,28.93
2023-02-11T02:49:01.111Z,30.00
2023-02-11T02:51:58.282Z,28.53
2023-02-11T02:54:51.135Z,27.33
2023-02-11T02:57:33.791Z,25.00
2023-02-11T03:00:14.051Z,26.87
2023-02-11T03:02:53.601Z,26.53
2023-02-11T03:05:32.506Z,26.30
2023-02-11T03:08:08.486Z,26.50
2023-02-11T03:10:40.010Z,28.67
2023-02-11T03:13:08.945Z,27.30
2023-02-11T03:15:45.540Z,25.50
2023-02-11T03:18:17.116Z,27.63
2023-02-11T03:20:50.695Z,29.33
2023-02-11T03:23:23.816Z,27.00
2023-02-11T03:25:57.077Z,28.40
2023-02-11T03:28:32.516Z,27.80
2023-02-11T03:31:11.324Z,28.53
2023-02-11T03:33:44.911Z,29.90
2023-02-11T03:36:19.651Z,28.53
2023-02-11T03:38:51.870Z,28.30
2023-02-11T03:41:24.934Z,29.23
2023-02-11T03:43:55.466Z,26.40
2023-02-11T03:46:27.119Z,27.03
2023-02-11T03:48:57.994Z,25.20
2023-02-11T03:51:30.825Z,27.07
2023-02-11T03:54:02.398Z,25.73
2023-02-11T03:56:34.755Z,30.20
2023-02-11T03:59:02.745Z,29.53
2023-02-11T04:01:30.790Z,28.37
2023-02-11T04:03:59.338Z,27.93
2023-02-11T04:06:28.762Z,28.47
2023-02-11T04:08:56.999Z,28.47
2023-02-11T04:11:25.308Z,28.53
2023-02-11T04:13:53.276Z,29.80
2023-02-11T04:16:21.779Z,27.23
2023-02-11T04:18:49.867Z,25.97
2023-02-11T04:21:17.955Z,25.77
2023-02-11T04:23:47.644Z,26.03
2023-02-11T04:26:15.695Z,28.57
2023-02-11T04:28:43.584Z,27.63
2023-02-11T04:31:13.202Z,31.07
2023-02-11T04:33:41.370Z,33.83
2023-02-11T04:36:09.732Z,28.27
2023-02-11T04:38:38.131Z,27.33
2023-02-11T04:41:07.453Z,27.67
2023-02-11T04:43:35.555Z,27.13
2023-02-11T04:46:03.690Z,27.20
2023-02-11T04:48:31.709Z,24.47
2023-02-11T04:51:00.193Z,26.73
2023-02-11T04:53:28.507Z,28.60
2023-02-11T04:55:56.645Z,30.50
2023-02-11T04:58:26.437Z,28.03
2023-02-11T05:00:54.644Z,27.53
2023-02-11T05:03:22.612Z,27.57
2023-02-11T05:05:51.531Z,27.93
2023-02-11T05:08:21.525Z,24.87
2023-02-11T05:10:49.478Z,26.87
2023-02-11T05:13:17.850Z,25.40
2023-02-11T05:15:47.168Z,27.37
2023-02-11T05:18:15.615Z,26.47
2023-02-11T05:20:43.916Z,25.57
2023-02-11T05:23:11.810Z,25.97
2023-02-11T05:25:40.001Z,28.47
2023-02-11T05:28:08.455Z,27.73
2023-02-11T05:30:36.503Z,25.93
2023-02-11T05:33:06.373Z,28.27
2023-02-11T05:35:34.739Z,26.17
2023-02-11T05:38:02.654Z,23.85
2023-02-11T05:40:30.617Z,25.03
2023-02-11T05:42:59.560Z,24.30
2023-02-11T05:45:27.816Z,27.33
2023-02-11T05:47:56.387Z,26.80
2023-02-11T05:50:26.903Z,27.13
2023-02-11T05:52:55.192Z,30.27
2023-02-11T05:55:23.820Z,26.70
2023-02-11T05:57:52.233Z,27.25
2023-02-11T06:00:20.817Z,28.15
2023-02-11T06:02:49.995Z,29.30
2023-02-11T06:05:18.370Z,28.30
2023-02-11T06:07:47.839Z,27.90
2023-02-11T06:10:16.539Z,28.63
2023-02-11T06:12:44.898Z,27.67
2023-02-11T06:15:13.395Z,28.38
2023-02-11T06:17:41.827Z,27.17
2023-02-11T06:20:11.432Z,27.60
2023-02-11T06:22:39.657Z,28.37
2023-02-11T06:25:11.526Z,28.23
2023-02-11T06:27:40.401Z,27.80
2023-02-11T06:30:09.751Z,24.95
2023-02-11T06:32:46.153Z,25.97
2023-02-11T06:35:15.453Z,28.43
2023-02-11T06:37:44.289Z,29.20
2023-02-11T06:40:14.365Z,27.77
2023-02-11T06:42:42.744Z,28.97
2023-02-11T06:45:12.240Z,27.93
2023-02-11T06:47:41.303Z,30.13
2023-02-11T06:50:12.114Z,30.07
2023-02-11T06:52:40.115Z,29.20
2023-02-11T06:55:08.703Z,29.50
2023-02-11T06:57:38.540Z,28.80
2023-02-11T07:00:07.595Z,33.83
2023-02-11T07:02:36.247Z,28.57
2023-02-11T07:05:04.459Z,28.27
2023-02-11T07:07:34.199Z,27.35
2023-02-11T07:10:03.295Z,26.73
2023-02-11T07:12:31.622Z,29.33
2023-02-11T07:15:00.858Z,28.73
2023-02-11T07:17:28.712Z,26.95
2023-02-11T07:19:57.108Z,26.33
2023-02-11T07:22:25.300Z,27.10
2023-02-11T07:24:53.390Z,26.13
2023-02-11T07:27:21.818Z,26.73
2023-02-11T07:29:50.093Z,26.30
2023-02-11T07:32:19.476Z,26.20
2023-02-11T07:34:48.554Z,28.03
2023-02-11T07:37:16.898Z,27.23
2023-02-11T07:39:44.804Z,23.03
2023-02-11T07:42:13.271Z,24.02
2023-02-11T07:44:41.290Z,22.08
2023-02-11T07:47:09.334Z,26.80
2023-02-11T07:49:39.173Z,24.98
2023-02-11T07:52:07.095Z,25.63
2023-02-11T07:54:35.013Z,22.83
2023-02-11T07:57:03.920Z,23.48
2023-02-11T07:59:31.903Z,24.70
2023-02-11T08:02:00.204Z,26.20
2023-02-11T08:04:28.906Z,25.05
2023-02-11T08:06:59.312Z,26.50
2023-02-11T08:09:27.270Z,26.13
2023-02-11T08:11:55.551Z,25.27
2023-02-11T08:14:25.284Z,24.35
2023-02-11T08:16:53.608Z,23.65
2023-02-11T08:19:22.319Z,23.60
2023-02-11T08:21:51.224Z,24.23
2023-02-11T08:24:21.194Z,22.85
2023-02-11T08:26:49.640Z,24.13
2023-02-11T08:29:18.686Z,22.38
2023-02-11T08:31:49.069Z,22.67
2023-02-11T08:34:19.407Z,22.15
2023-02-11T08:36:48.650Z,22.50
2023-02-11T08:39:20.494Z,22.52
2023-02-11T08:41:51.976Z,24.13
2023-02-11T08:44:21.698Z,22.98
2023-02-11T08:46:50.959Z,19.98
2023-02-11T08:49:19.626Z,20.52
2023-02-11T08:51:48.000Z,20.73
2023-02-11T08:54:16.746Z,22.67
2023-02-11T08:56:46.806Z,23.33
2023-02-11T08:59:18.121Z,21.75
2023-02-11T09:01:47.174Z,21.40
2023-02-11T09:04:15.675Z,18.50
2023-02-11T09:06:44.414Z,18.48
2023-02-11T09:09:14.207Z,17.58
2023-02-11T09:11:43.656Z,19.52
2023-02-11T09:14:20.365Z,20.67
2023-02-11T09:16:49.942Z,19.50
2023-02-11T09:19:19.172Z,19.08
2023-02-11T09:21:47.851Z,20.55
2023-02-11T09:24:16.873Z,19.45
2023-02-11T09:26:45.204Z,17.52
2023-02-11T09:29:13.569Z,16.92
2023-02-11T09:31:43.518Z,16.02
2023-02-11T09:34:12.920Z,15.43
2023-02-11T09:36:42.155Z,14.80
2023-02-11T09:39:13.648Z,13.52
2023-02-11T09:42:04.143Z,11.80
2023-02-11T09:44:34.689Z,13.07
2023-02-11T09:47:06.688Z,14.27
2023-02-11T09:49:41.414Z,14.38
2023-02-11T09:52:20.600Z,12.90
2023-02-11T09:54:56.228Z,11.60
2023-02-11T09:57:29.278Z,16.85
2023-02-11T09:59:58.331Z,14.20
2023-02-11T10:02:38.113Z,12.73
2023-02-11T10:05:22.889Z,11.88
2023-02-11T10:08:02.176Z,10.93
2023-02-11T10:10:43.695Z,9.02
2023-02-11T10:13:32.124Z,9.65
2023-02-11T10:16:09.598Z,11.90
2023-02-11T10:19:19.475Z,10.57
2023-02-11T10:22:00.412Z,11.48
2023-02-11T10:24:29.933Z,12.95
2023-02-11T10:26:57.852Z,11.95
2023-02-11T10:29:37.203Z,12.30
2023-02-11T10:32:12.426Z,12.07
2023-02-11T10:34:42.920Z,12.27
2023-02-11T10:37:13.945Z,11.65
2023-02-11T10:39:42.755Z,13.50
2023-02-11T10:42:13.641Z,14.48
2023-02-11T10:44:48.809Z,13.88
2023-02-11T10:47:22.568Z,16.02
2023-02-11T10:49:52.293Z,14.45
2023-02-11T10:52:23.752Z,14.38
2023-02-11T10:55:00.463Z,15.70
2023-02-11T10:57:32.646Z,15.30
2023-02-11T11:00:03.778Z,17.10
2023-02-11T11:02:34.724Z,19.58
2023-02-11T11:05:08.023Z,23.50
2023-02-11T11:07:37.908Z,19.10
2023-02-11T11:10:26.461Z,20.65
2023-02-11T11:12:54.323Z,17.42
2023-02-11T11:15:24.626Z,17.83
2023-02-11T11:18:21.582Z,17.88
2023-02-11T11:20:59.727Z,20.48
2023-02-11T11:23:29.760Z,21.73
2023-02-11T11:26:07.182Z,21.67
2023-02-11T11:28:41.648Z,21.10
2023-02-11T11:31:15.950Z,20.88
2023-02-11T11:33:45.990Z,18.83
2023-02-11T11:36:21.195Z,22.02
2023-02-11T11:38:54.013Z,22.50
2023-02-11T11:41:26.159Z,19.77
2023-02-11T11:43:59.602Z,18.55
2023-02-11T11:46:31.353Z,20.25
2023-02-11T11:49:19.628Z,22.40
2023-02-11T11:51:56.178Z,20.35
2023-02-11T11:54:29.323Z,20.33
2023-02-11T11:57:01.964Z,20.50
2023-02-11T11:59:30.694Z,19.75
2023-02-11T12:02:19.433Z,21.08
2023-02-11T12:05:04.003Z,19.85
2023-02-11T12:07:47.844Z,21.85
2023-02-11T12:10:39.143Z,21.30
2023-02-11T12:13:21.858Z,20.85
2023-02-11T12:15:59.199Z,23.67
2023-02-11T12:19:00.313Z,19.73
2023-02-11T12:21:43.298Z,21.63
2023-02-11T12:24:29.601Z,22.15
2023-02-11T12:27:04.573Z,21.92
2023-02-11T12:29:43.713Z,22.33
2023-02-11T12:32:27.858Z,19.58
2023-02-11T12:35:17.147Z,22.17
2023-02-11T12:37:58.288Z,21.08
2023-02-11T12:40:38.987Z,23.05
2023-02-11T12:43:19.741Z,17.92
2023-02-11T12:46:02.683Z,21.05
2023-02-11T12:48:42.608Z,20.88
2023-02-11T12:51:24.355Z,26.30
2023-02-11T12:54:19.203Z,18.90
2023-02-11T12:56:53.679Z,25.30
2023-02-11T12:59:34.835Z,21.33
2023-02-11T13:02:10.786Z,21.35
2023-02-11T13:04:42.825Z,17.30
2023-02-11T13:07:16.798Z,17.98
2023-02-11T13:09:50.704Z,21.05
2023-02-11T13:12:38.575Z,23.05
2023-02-11T13:15:12.041Z,21.15
2023-02-11T13:17:49.011Z,19.95
2023-02-11T13:20:27.602Z,20.92
2023-02-11T13:23:03.697Z,20.10
2023-02-11T13:25:39.121Z,20.42
2023-02-11T13:28:21.931Z,22.83
2023-02-11T13:30:58.056Z,23.63
2023-02-11T13:33:34.249Z,21.65
2023-02-11T13:36:16.413Z,22.13
2023-02-11T13:38:57.932Z,19.33
2023-02-11T13:41:31.022Z,17.65
2023-02-11T13:44:03.308Z,17.23
2023-02-11T13:46:51.305Z,19.42
2023-02-11T13:49:22.260Z,18.55
2023-02-11T13:51:51.501Z,21.10
2023-02-11T13:54:27.596Z,19.27
2023-02-11T13:57:32.789Z,21.00
2023-02-11T14:00:06.182Z,19.52
2023-02-11T14:02:54.160Z,18.70
2023-02-11T14:05:45.677Z,18.15
2023-02-11T14:08:49.247Z,16.17
2023-02-11T14:11:48.549Z,18.80
2023-02-11T14:14:36.575Z,18.10
2023-02-11T14:17:35.958Z,19.38
2023-02-11T14:20:25.698Z,15.27
2023-02-11T14:22:55.036Z,18.98
2023-02-11T14:25:25.548Z,19.10
2023-02-11T14:27:59.236Z,16.90
2023-02-11T14:30:36.460Z,16.58
2023-02-11T14:33:38.002Z,16.95
2023-02-11T14:36:17.696Z,18.30
2023-02-11T14:39:00.169Z,16.38
2023-02-11T14:41:31.399Z,15.85
2023-02-11T14:44:04.770Z,17.17
2023-02-11T14:46:34.618Z,18.20
2023-02-11T14:49:06.352Z,19.08
2023-02-11T14:51:37.580Z,18.63
2023-02-11T14:54:15.206Z,18.92
2023-02-11T14:56:44.645Z,18.63
2023-02-11T14:59:19.249Z,17.58
2023-02-11T15:01:50.915Z,21.00
2023-02-11T15:04:28.114Z,18.45
2023-02-11T15:06:59.706Z,19.27
2023-02-11T15:09:35.095Z,18.25
2023-02-11T15:12:03.719Z,18.63
2023-02-11T15:14:33.853Z,20.13
2023-02-11T15:17:06.128Z,20.63
2023-02-11T15:19:37.688Z,21.65
2023-02-11T15:22:11.152Z,19.25
2023-02-11T15:24:40.510Z,20.27
2023-02-11T15:27:15.021Z,20.60
2023-02-11T15:29:47.719Z,20.25
2023-02-11T15:32:22.191Z,20.20
2023-02-11T15:34:53.505Z,20.45
2023-02-11T15:37:23.959Z,18.27
2023-02-11T15:39:54.062Z,18.70
2023-02-11T15:42:24.937Z,19.00
2023-02-11T15:45:13.117Z,21.48
2023-02-11T15:47:43.724Z,22.42
2023-02-11T15:50:24.020Z,22.92
2023-02-11T15:52:53.694Z,23.88
2023-02-11T15:55:22.148Z,24.65
2023-02-11T15:57:55.697Z,25.38
2023-02-11T16:00:26.210Z,26.00
2023-02-11T16:02:54.938Z,21.30
2023-02-11T16:05:36.513Z,23.23
2023-02-11T16:08:21.121Z,22.33
2023-02-11T16:10:58.878Z,23.20
2023-02-11T16:13:30.276Z,25.48
2023-02-11T16:16:01.922Z,25.42
2023-02-11T16:18:39.621Z,26.20
2023-02-11T16:21:17.340Z,22.90
2023-02-11T16:23:52.658Z,23.38
2023-02-11T16:26:28.943Z,22.30
2023-02-11T16:29:09.184Z,22.40
2023-02-11T16:31:39.649Z,23.02
2023-02-11T16:34:14.943Z,25.63
2023-02-11T16:36:45.084Z,27.15
2023-02-11T16:39:14.397Z,24.40
2023-02-11T16:41:42.377Z,23.45
2023-02-11T16:44:10.710Z,22.92
2023-02-11T16:46:39.107Z,24.00
2023-02-11T16:49:18.206Z,25.50
2023-02-11T16:51:49.849Z,21.70
2023-02-11T16:54:19.756Z,22.45
2023-02-11T16:56:47.941Z,24.98
2023-02-11T16:59:16.143Z,24.85
2023-02-11T17:01:45.286Z,30.40
2023-02-11T17:04:18.773Z,32.10
2023-02-11T17:06:49.350Z,33.70
2023-02-11T17:09:20.720Z,33.70
2023-02-11T17:11:49.893Z,30.52
2023-02-11T17:14:18.693Z,32.13
2023-02-11T17:16:49.502Z,24.85
2023-02-11T17:19:21.162Z,24.90
2023-02-11T17:21:51.931Z,23.35
2023-02-11T17:24:21.038Z,25.60
2023-02-11T17:26:50.340Z,23.67
2023-02-11T17:29:21.835Z,25.40
2023-02-11T17:31:51.589Z,26.30
2023-02-11T17:34:20.365Z,24.63
2023-02-11T17:36:49.041Z,25.50
2023-02-11T17:39:19.290Z,29.05
2023-02-11T17:41:47.187Z,33.22
2023-02-11T17:44:16.723Z,28.75
2023-02-11T17:46:45.184Z,28.38
2023-02-11T17:49:13.184Z,26.38
2023-02-11T17:51:42.226Z,29.80
2023-02-11T17:54:13.209Z,52.50
2023-02-11T17:56:43.850Z,42.33
2023-02-11T17:59:13.213Z,50.70
2023-02-11T18:01:42.937Z,52.28
2023-02-11T18:04:15.974Z,49.10
2023-02-11T18:06:44.274Z,42.95
2023-02-11T18:09:12.810Z,38.55
2023-02-11T18:11:42.780Z,40.42
2023-02-11T18:14:11.853Z,37.45
2023-02-11T18:16:43.177Z,34.13
2023-02-11T18:19:12.521Z,32.90
2023-02-11T18:21:40.728Z,32.90
2023-02-11T18:24:08.905Z,33.22
2023-02-11T18:26:44.377Z,30.10
2023-02-11T18:29:13.455Z,30.50
2023-02-11T18:31:41.448Z,31.05
2023-02-11T18:34:10.713Z,29.75
2023-02-11T18:36:39.535Z,28.10
2023-02-11T18:39:07.873Z,26.38
2023-02-11T18:41:38.094Z,30.60
2023-02-11T18:44:07.906Z,31.75
2023-02-11T18:46:35.947Z,30.23
2023-02-11T18:49:04.254Z,28.40
2023-02-11T18:51:32.717Z,26.33
2023-02-11T18:54:01.723Z,29.08
2023-02-11T18:56:29.740Z,29.67
2023-02-11T18:59:01.149Z,30.27
2023-02-11T19:01:33.489Z,32.67
2023-02-11T19:04:04.452Z,32.75
2023-02-11T19:06:35.283Z,31.20
2023-02-11T19:09:07.636Z,31.80
2023-02-11T19:11:55.861Z,30.90
2023-02-11T19:14:26.637Z,32.92
2023-02-11T19:16:57.981Z,29.70
2023-02-11T19:19:28.771Z,30.80
2023-02-11T19:21:58.416Z,28.30
2023-02-11T19:24:29.324Z,29.45
2023-02-11T19:27:00.173Z,30.20
2023-02-11T19:29:28.638Z,31.52
2023-02-11T19:31:59.264Z,25.25
2023-02-11T19:34:27.583Z,27.95
2023-02-11T19:36:56.840Z,29.75
2023-02-11T19:39:25.544Z,28.10
2023-02-11T19:41:53.581Z,29.13
2023-02-11T19:44:21.571Z,29.05
2023-02-11T19:46:53.163Z,29.90
2023-02-11T19:49:25.988Z,26.85
2023-02-11T19:51:55.899Z,27.73
2023-02-11T19:54:23.968Z,29.10
2023-02-11T19:56:51.911Z,25.15
2023-02-11T19:59:21.685Z,26.48
2023-02-11T20:01:50.130Z,28.77
2023-02-11T20:04:18.374Z,30.42
2023-02-11T20:06:49.550Z,28.30
2023-02-11T20:09:17.667Z,28.75
2023-02-11T20:11:45.533Z,28.40
2023-02-11T20:14:15.332Z,36.20
2023-02-11T20:16:49.236Z,34.67
2023-02-11T20:19:20.679Z,33.03
2023-02-11T20:21:53.734Z,33.28
2023-02-11T20:24:22.806Z,31.92
2023-02-11T20:26:55.274Z,31.35
2023-02-11T20:29:23.952Z,33.33
2023-02-11T20:31:52.544Z,31.05
2023-02-11T20:34:21.913Z,30.17
2023-02-11T20:36:52.861Z,30.38
2023-02-11T20:39:23.056Z,29.80
2023-02-11T20:41:51.860Z,28.20
2023-02-11T20:44:22.493Z,28.10
2023-02-11T20:46:51.128Z,29.27
2023-02-11T20:49:22.316Z,27.25
2023-02-11T20:51:53.752Z,28.00
2023-02-11T20:54:23.471Z,29.38
2023-02-11T20:56:52.322Z,29.67
2023-02-11T20:59:21.149Z,29.73
2023-02-11T21:01:50.609Z,30.17
2023-02-11T21:04:20.619Z,29.20
2023-02-11T21:06:53.655Z,32.40
2023-02-11T21:09:24.618Z,30.23
2023-02-11T21:11:54.339Z,30.52
2023-02-11T21:14:26.752Z,28.55
2023-02-11T21:16:55.040Z,29.25
2023-02-11T21:19:23.236Z,31.45
2023-02-11T21:21:55.440Z,28.45
2023-02-11T21:24:23.804Z,31.70
2023-02-11T21:26:51.678Z,28.42
2023-02-11T21:29:19.698Z,29.30
2023-02-11T21:31:48.305Z,35.75
2023-02-11T21:34:16.332Z,31.83
2023-02-11T21:36:45.751Z,28.33
2023-02-11T21:39:15.244Z,29.90
2023-02-11T21:41:43.493Z,30.95
2023-02-11T21:44:11.928Z,29.90
2023-02-11T21:46:40.035Z,29.73
2023-02-11T21:49:08.080Z,30.45
2023-02-11T21:51:36.778Z,31.88
2023-02-11T21:54:05.037Z,29.27
2023-02-11T21:56:35.506Z,31.10
2023-02-11T21:59:03.835Z,29.95
2023-02-11T22:01:35.395Z,31.02
2023-02-11T22:04:04.219Z,30.88
2023-02-11T22:06:35.213Z,31.23
2023-02-11T22:09:05.074Z,33.35
2023-02-11T22:11:34.916Z,29.67
2023-02-11T22:14:03.269Z,29.42
2023-02-11T22:16:32.657Z,30.35
2023-02-11T22:19:02.380Z,30.83
2023-02-11T22:21:30.618Z,27.05
2023-02-11T22:24:00.853Z,30.38
2023-02-11T22:26:29.519Z,33.72
2023-02-11T22:28:58.935Z,35.53
2023-02-11T22:31:30.042Z,34.30
2023-02-11T22:33:59.230Z,35.20
2023-02-11T22:36:30.558Z,33.88
2023-02-11T22:39:02.336Z,35.80
2023-02-11T22:41:33.507Z,30.52
2023-02-11T22:44:02.816Z,31.90
2023-02-11T22:46:31.152Z,33.53
2023-02-11T22:48:59.122Z,30.48
2023-02-11T22:51:28.727Z,32.13
2023-02-11T22:53:58.458Z,34.30
2023-02-11T22:56:27.545Z,32.30
2023-02-11T22:58:58.312Z,33.65
2023-02-11T23:01:27.928Z,27.67
2023-02-11T23:03:56.035Z,31.63
2023-02-11T23:06:24.054Z,34.05
2023-02-11T23:08:52.675Z,37.55
2023-02-11T23:11:21.871Z,37.67
2023-02-11T23:13:52.412Z,35.45
2023-02-11T23:16:22.406Z,34.95
2023-02-11T23:18:52.980Z,33.58
2023-02-11T23:21:23.648Z,32.45
2023-02-11T23:23:57.280Z,33.28
2023-02-11T23:26:26.586Z,33.08
2023-02-11T23:28:55.016Z,28.98
2023-02-11T23:31:25.842Z,32.83
2023-02-11T23:33:55.671Z,32.83
2023-02-11T23:36:24.196Z,34.90
2023-02-11T23:38:55.519Z,33.22
2023-02-11T23:41:23.852Z,32.67
2023-02-11T23:43:52.821Z,32.35
2023-02-11T23:46:22.347Z,32.67
2023-02-11T23:48:51.127Z,30.40
2023-02-11T23:51:21.039Z,31.77
2023-02-11T23:53:50.414Z,29.98
2023-02-11T23:56:20.408Z,30.98
2023-02-11T23:58:49.788Z,32.28
